createdAt,value
2018-12-17T00:01:36.889Z,17.80
2018-12-17T00:04:04.316Z,18.63
2018-12-17T00:06:31.560Z,18.33
2018-12-17T00:08:58.803Z,22.20
2018-12-17T00:11:26.233Z,19.87
2018-12-17T00:13:53.456Z,19.83
2018-12-17T00:16:21.016Z,18.67
2018-12-17T00:18:48.281Z,20.80
2018-12-17T00:21:15.504Z,19.33
2018-12-17T00:23:42.767Z,20.00
2018-12-17T00:26:10.121Z,20.93
2018-12-17T00:28:37.475Z,21.00
2018-12-17T00:31:04.815Z,22.27
2018-12-17T00:33:32.073Z,22.27
2018-12-17T00:35:59.299Z,23.30
2018-12-17T00:38:26.524Z,22.40
2018-12-17T00:40:53.745Z,24.77
2018-12-17T00:43:21.290Z,19.73
2018-12-17T00:45:48.851Z,20.57
2018-12-17T00:48:16.301Z,23.40
2018-12-17T00:50:43.527Z,22.60
2018-12-17T00:53:10.761Z,22.40
2018-12-17T00:55:38.021Z,21.33
2018-12-17T00:58:05.372Z,23.03
2018-12-17T01:00:32.861Z,25.17
2018-12-17T01:03:00.118Z,23.00
2018-12-17T01:05:27.435Z,28.93
2018-12-17T01:07:54.663Z,24.67
2018-12-17T01:10:22.041Z,24.60
2018-12-17T01:12:49.259Z,24.33
2018-12-17T01:15:16.513Z,25.63
2018-12-17T01:17:43.875Z,24.47
2018-12-17T01:20:11.309Z,23.17
2018-12-17T01:22:38.578Z,23.37
2018-12-17T01:25:06.081Z,25.03
2018-12-17T01:27:33.319Z,24.63
2018-12-17T01:30:00.556Z,23.90
2018-12-17T01:32:27.838Z,25.60
2018-12-17T01:34:55.998Z,26.53
2018-12-17T01:37:23.240Z,26.10
2018-12-17T01:39:50.617Z,25.53
2018-12-17T01:42:17.952Z,29.60
2018-12-17T01:44:45.193Z,27.97
2018-12-17T01:47:12.481Z,25.07
2018-12-17T01:49:39.825Z,25.30
2018-12-17T01:52:07.057Z,21.83
2018-12-17T01:54:34.332Z,22.43
2018-12-17T01:57:01.590Z,24.23
2018-12-17T01:59:28.959Z,25.10
2018-12-17T02:01:56.473Z,24.37
2018-12-17T02:04:23.745Z,25.30
2018-12-17T02:06:51.014Z,25.67
2018-12-17T02:09:18.393Z,24.57
2018-12-17T02:11:45.749Z,25.17
2018-12-17T02:14:13.066Z,26.17
2018-12-17T02:16:40.338Z,25.50
2018-12-17T02:19:07.566Z,24.90
2018-12-17T02:21:34.919Z,26.37
2018-12-17T02:24:02.399Z,24.90
2018-12-17T02:26:29.888Z,29.03
2018-12-17T02:28:57.108Z,27.70
2018-12-17T02:31:24.414Z,27.57
2018-12-17T02:33:51.680Z,27.30
2018-12-17T02:36:19.016Z,25.93
2018-12-17T02:38:46.294Z,28.23
2018-12-17T02:41:13.636Z,24.50
2018-12-17T02:43:40.849Z,26.30
2018-12-17T02:46:08.129Z,24.73
2018-12-17T02:48:35.366Z,26.93
2018-12-17T02:51:02.753Z,25.43
2018-12-17T02:53:30.045Z,26.17
2018-12-17T02:55:57.306Z,27.70
2018-12-17T02:58:24.553Z,27.57
2018-12-17T03:00:51.953Z,25.67
2018-12-17T03:03:19.193Z,24.23
2018-12-17T03:05:46.555Z,27.50
2018-12-17T03:08:14.003Z,22.77
2018-12-17T03:10:41.271Z,25.40
2018-12-17T03:13:08.519Z,25.20
2018-12-17T03:15:35.875Z,25.40
2018-12-17T03:18:03.326Z,25.70
2018-12-17T03:20:30.549Z,24.93
2018-12-17T03:22:57.837Z,24.30
2018-12-17T03:25:25.063Z,26.33
2018-12-17T03:27:52.375Z,22.77
2018-12-17T03:30:19.674Z,24.27
2018-12-17T03:32:47.051Z,23.77
2018-12-17T03:35:14.490Z,25.40
2018-12-17T03:37:41.763Z,23.83
2018-12-17T03:40:09.206Z,27.07
2018-12-17T03:42:36.438Z,26.27
2018-12-17T03:45:04.068Z,24.23
2018-12-17T03:47:31.288Z,26.57
2018-12-17T03:49:58.517Z,27.43
2018-12-17T03:52:25.850Z,25.63
2018-12-17T03:54:53.086Z,26.13
2018-12-17T03:57:20.407Z,27.90
2018-12-17T03:59:47.678Z,24.50
2018-12-17T04:02:14.881Z,28.03
2018-12-17T04:04:42.704Z,25.90
2018-12-17T04:07:09.953Z,30.63
2018-12-17T04:09:37.279Z,28.23
2018-12-17T04:12:04.599Z,24.47
2018-12-17T04:14:31.978Z,26.47
2018-12-17T04:16:59.193Z,26.00
2018-12-17T04:19:26.435Z,28.27
2018-12-17T04:21:53.670Z,27.93
2018-12-17T04:24:20.873Z,29.13
2018-12-17T04:26:48.100Z,28.93
2018-12-17T04:29:15.362Z,26.53
2018-12-17T04:31:42.570Z,27.20
2018-12-17T04:34:09.783Z,28.13
2018-12-17T04:36:37.049Z,28.47
2018-12-17T04:39:05.739Z,27.87
2018-12-17T04:41:32.915Z,28.17
2018-12-17T04:44:00.170Z,29.40
2018-12-17T04:46:27.453Z,27.37
2018-12-17T04:48:54.656Z,29.93
2018-12-17T04:51:22.018Z,30.10
2018-12-17T04:53:49.231Z,28.23
2018-12-17T04:56:16.476Z,29.53
2018-12-17T04:58:43.750Z,27.70
2018-12-17T05:01:10.977Z,29.20
2018-12-17T05:03:38.168Z,28.17
2018-12-17T05:06:05.417Z,30.13
2018-12-17T05:08:32.628Z,27.80
2018-12-17T05:10:59.796Z,31.60
2018-12-17T05:13:27.035Z,29.73
2018-12-17T05:15:54.233Z,30.77
2018-12-17T05:18:21.478Z,26.77
2018-12-17T05:20:48.743Z,29.67
2018-12-17T05:23:15.953Z,31.00
2018-12-17T05:25:43.180Z,28.40
2018-12-17T05:28:10.570Z,30.90
2018-12-17T05:30:37.764Z,31.53
2018-12-17T05:33:05.301Z,28.67
2018-12-17T05:35:32.555Z,30.70
2018-12-17T05:37:59.748Z,31.03
2018-12-17T05:40:27.016Z,25.87
2018-12-17T05:42:54.279Z,29.87
2018-12-17T05:45:21.507Z,29.13
2018-12-17T05:47:48.685Z,27.40
2018-12-17T05:50:15.921Z,28.93
2018-12-17T05:52:43.138Z,29.23
2018-12-17T05:55:10.525Z,32.50
2018-12-17T05:57:37.789Z,27.87
2018-12-17T06:00:06.455Z,31.73
2018-12-17T06:02:33.667Z,30.47
2018-12-17T06:05:00.913Z,28.33
2018-12-17T06:07:28.110Z,28.03
2018-12-17T06:09:55.338Z,25.93
2018-12-17T06:12:22.697Z,29.53
2018-12-17T06:14:49.906Z,25.57
2018-12-17T06:17:17.225Z,26.77
2018-12-17T06:19:44.482Z,25.23
2018-12-17T06:22:11.721Z,27.07
2018-12-17T06:24:38.910Z,27.33
2018-12-17T06:27:06.149Z,27.03
2018-12-17T06:29:35.677Z,23.97
2018-12-17T06:32:02.737Z,26.10
2018-12-17T06:34:29.988Z,24.93
2018-12-17T06:36:57.291Z,26.27
2018-12-17T06:39:24.538Z,27.33
2018-12-17T06:41:51.817Z,22.87
2018-12-17T06:44:19.032Z,26.97
2018-12-17T06:46:46.280Z,26.27
2018-12-17T06:49:13.584Z,25.70
2018-12-17T06:51:41.149Z,25.53
2018-12-17T06:54:08.370Z,24.17
2018-12-17T06:56:35.612Z,27.87
2018-12-17T06:59:02.952Z,29.13
2018-12-17T07:01:30.413Z,24.60
2018-12-17T07:03:57.751Z,27.83
2018-12-17T07:06:25.009Z,28.03
2018-12-17T07:08:52.259Z,25.70
2018-12-17T07:11:19.633Z,26.40
2018-12-17T07:13:46.864Z,26.43
2018-12-17T07:16:14.122Z,22.57
2018-12-17T07:18:41.390Z,25.00
2018-12-17T07:21:08.762Z,25.63
2018-12-17T07:23:35.974Z,24.90
2018-12-17T07:26:03.371Z,23.37
2018-12-17T07:28:30.600Z,25.07
2018-12-17T07:30:57.800Z,22.97
2018-12-17T07:33:25.052Z,24.70
2018-12-17T07:35:52.322Z,24.30
2018-12-17T07:38:19.520Z,26.03
2018-12-17T07:40:46.758Z,25.73
2018-12-17T07:43:13.977Z,25.07
2018-12-17T07:45:41.232Z,25.77
2018-12-17T07:48:08.501Z,26.50
2018-12-17T07:50:35.718Z,23.97
2018-12-17T07:53:03.170Z,24.27
2018-12-17T07:55:30.529Z,24.80
2018-12-17T07:57:57.709Z,27.33
2018-12-17T08:00:24.977Z,23.23
2018-12-17T08:02:52.241Z,33.57
2018-12-17T08:05:19.461Z,29.03
2018-12-17T08:07:46.642Z,27.67
2018-12-17T08:10:13.877Z,30.03
2018-12-17T08:12:41.091Z,33.27
2018-12-17T08:15:08.429Z,29.57
2018-12-17T08:17:35.658Z,27.00
2018-12-17T08:20:03.249Z,32.77
2018-12-17T08:22:30.605Z,27.23
2018-12-17T08:24:57.851Z,28.60
2018-12-17T08:27:25.037Z,27.33
2018-12-17T08:29:52.229Z,32.60
2018-12-17T08:32:19.460Z,35.13
2018-12-17T08:34:46.675Z,29.50
2018-12-17T08:37:13.877Z,31.27
2018-12-17T08:39:41.112Z,29.57
2018-12-17T08:42:08.360Z,31.30
2018-12-17T08:44:35.662Z,29.73
2018-12-17T08:47:03.116Z,32.60
2018-12-17T08:49:30.446Z,29.90
2018-12-17T08:51:57.644Z,31.53
2018-12-17T08:54:24.881Z,29.57
2018-12-17T08:56:52.093Z,31.30
2018-12-17T08:59:19.394Z,29.97
2018-12-17T09:01:46.985Z,29.33
2018-12-17T09:04:14.226Z,31.20
2018-12-17T09:06:41.551Z,31.00
2018-12-17T09:09:08.913Z,30.00
2018-12-17T09:11:36.246Z,25.63
2018-12-17T09:14:03.645Z,27.80
2018-12-17T09:16:30.940Z,32.53
2018-12-17T09:18:58.160Z,32.03
2018-12-17T09:21:25.398Z,32.67
2018-12-17T09:23:52.642Z,29.80
2018-12-17T09:26:19.868Z,28.33
2018-12-17T09:28:47.068Z,30.70
2018-12-17T09:31:14.400Z,32.43
2018-12-17T09:33:41.725Z,30.13
2018-12-17T09:36:09.153Z,29.83
2018-12-17T09:38:36.519Z,34.80
2018-12-17T09:41:03.877Z,34.60
2018-12-17T09:43:31.200Z,30.27
2018-12-17T09:45:58.453Z,34.77
2018-12-17T09:48:25.682Z,31.00
2018-12-17T09:50:53.022Z,34.07
2018-12-17T09:53:20.225Z,31.73
2018-12-17T09:55:47.560Z,31.10
2018-12-17T09:58:14.796Z,31.57
2018-12-17T10:00:42.175Z,31.40
2018-12-17T10:03:09.387Z,31.00
2018-12-17T10:05:36.589Z,31.17
2018-12-17T10:08:03.945Z,30.60
2018-12-17T10:10:31.270Z,34.20
2018-12-17T10:12:58.452Z,36.00
2018-12-17T10:15:25.749Z,30.73
2018-12-17T10:17:53.013Z,33.10
2018-12-17T10:20:20.334Z,32.07
2018-12-17T10:22:47.650Z,33.93
2018-12-17T10:25:14.913Z,31.50
2018-12-17T10:27:42.180Z,29.97
2018-12-17T10:30:09.527Z,31.43
2018-12-17T10:32:36.756Z,31.13
2018-12-17T10:35:04.285Z,33.13
2018-12-17T10:37:32.117Z,32.80
2018-12-17T10:39:59.430Z,32.17
2018-12-17T10:42:26.645Z,31.73
2018-12-17T10:44:53.914Z,31.87
2018-12-17T10:47:21.148Z,33.63
2018-12-17T10:49:48.366Z,36.83
2018-12-17T10:52:15.734Z,34.63
2018-12-17T10:54:42.946Z,35.07
2018-12-17T10:57:10.163Z,33.07
2018-12-17T10:59:37.418Z,30.27
2018-12-17T11:02:14.417Z,33.37
2018-12-17T11:04:53.193Z,30.97
2018-12-17T11:07:20.521Z,33.87
2018-12-17T11:09:47.840Z,30.67
2018-12-17T11:12:15.277Z,35.83
2018-12-17T11:14:42.505Z,32.60
2018-12-17T11:17:09.712Z,34.00
2018-12-17T11:19:36.953Z,31.30
2018-12-17T11:22:04.185Z,33.23
2018-12-17T11:24:31.392Z,33.43
2018-12-17T11:26:58.661Z,35.97
2018-12-17T11:29:25.856Z,34.23
2018-12-17T11:31:53.096Z,37.63
2018-12-17T11:34:20.340Z,36.67
2018-12-17T11:36:47.546Z,35.90
2018-12-17T11:39:14.882Z,33.67
2018-12-17T11:41:42.175Z,37.30
2018-12-17T11:44:09.437Z,36.60
2018-12-17T11:46:36.693Z,39.30
2018-12-17T11:49:04.050Z,39.97
2018-12-17T11:51:31.410Z,34.57
2018-12-17T11:53:58.866Z,39.57
2018-12-17T11:57:10.585Z,36.63
2018-12-17T11:59:37.781Z,36.67
2018-12-17T12:02:05.129Z,37.03
2018-12-17T12:04:32.361Z,42.17
2018-12-17T12:06:59.649Z,43.80
2018-12-17T12:09:26.946Z,40.97
2018-12-17T12:11:54.193Z,40.37
2018-12-17T12:14:21.474Z,45.50
2018-12-17T12:16:48.733Z,38.43
2018-12-17T12:19:15.986Z,42.13
2018-12-17T12:21:43.199Z,40.53
2018-12-17T12:24:10.435Z,38.47
2018-12-17T12:26:37.723Z,38.63
2018-12-17T12:29:04.959Z,37.80
2018-12-17T12:31:32.169Z,41.27
2018-12-17T12:33:59.469Z,42.23
2018-12-17T12:36:26.716Z,38.90
2018-12-17T12:38:53.929Z,40.67
2018-12-17T12:41:21.193Z,41.63
2018-12-17T12:43:48.406Z,40.33
2018-12-17T12:46:15.660Z,41.17
2018-12-17T12:48:42.935Z,41.73
2018-12-17T12:51:10.154Z,45.43
2018-12-17T12:53:37.421Z,41.53
2018-12-17T12:56:04.798Z,44.33
2018-12-17T12:58:32.023Z,38.43
2018-12-17T13:00:59.242Z,39.47
2018-12-17T13:03:26.553Z,43.37
2018-12-17T13:05:53.760Z,40.57
2018-12-17T13:08:21.001Z,44.10
2018-12-17T13:10:48.268Z,41.07
2018-12-17T13:13:15.637Z,41.80
2018-12-17T13:15:42.968Z,45.23
2018-12-17T13:18:10.222Z,42.07
2018-12-17T13:20:37.430Z,44.10
2018-12-17T13:23:05.415Z,42.40
2018-12-17T13:25:37.340Z,44.80
2018-12-17T13:28:04.691Z,43.33
2018-12-17T13:30:32.037Z,40.63
2018-12-17T13:32:59.292Z,43.97
2018-12-17T13:35:26.484Z,42.13
2018-12-17T13:37:53.702Z,43.50
2018-12-17T13:40:21.164Z,45.37
2018-12-17T13:42:48.392Z,47.30
2018-12-17T13:45:15.740Z,45.70
2018-12-17T13:47:43.141Z,44.07
2018-12-17T13:50:16.342Z,44.07
2018-12-17T13:52:45.804Z,40.47
2018-12-17T13:55:13.436Z,42.40
2018-12-17T13:57:40.673Z,42.70
2018-12-17T14:00:09.362Z,42.30
2018-12-17T14:02:36.691Z,46.50
2018-12-17T14:05:04.225Z,42.07
2018-12-17T14:07:31.532Z,44.30
2018-12-17T14:10:04.489Z,46.03
2018-12-17T14:12:31.775Z,45.03
2018-12-17T14:14:58.978Z,49.93
2018-12-17T14:17:31.962Z,42.67
2018-12-17T14:20:04.888Z,43.47
2018-12-17T14:22:32.132Z,42.77
2018-12-17T14:24:59.346Z,49.87
2018-12-17T14:27:26.569Z,44.23
2018-12-17T14:29:53.890Z,43.60
2018-12-17T14:32:21.106Z,45.40
2018-12-17T14:34:48.315Z,43.20
2018-12-17T14:37:15.585Z,43.63
2018-12-17T14:39:42.929Z,43.33
2018-12-17T14:42:10.156Z,45.30
2018-12-17T14:44:37.392Z,46.47
2018-12-17T14:47:04.891Z,44.53
2018-12-17T14:49:32.109Z,53.27
2018-12-17T14:51:59.365Z,46.80
2018-12-17T14:54:26.682Z,48.20
2018-12-17T14:56:54.023Z,49.27
2018-12-17T14:59:21.407Z,45.70
2018-12-17T15:01:48.933Z,43.73
2018-12-17T15:04:16.147Z,43.23
2018-12-17T15:06:43.402Z,48.03
2018-12-17T15:09:10.728Z,46.90
2018-12-17T15:11:38.063Z,42.80
2018-12-17T15:14:05.413Z,45.13
2018-12-17T15:16:32.738Z,49.43
2018-12-17T15:18:59.980Z,49.53
2018-12-17T15:21:27.342Z,43.57
2018-12-17T15:23:54.595Z,47.20
2018-12-17T15:26:21.892Z,38.30
2018-12-17T15:28:49.182Z,46.30
2018-12-17T15:31:16.459Z,49.87
2018-12-17T15:33:43.690Z,43.83
2018-12-17T15:36:11.055Z,48.27
2018-12-17T15:38:38.283Z,46.17
2018-12-17T15:41:05.497Z,44.10
2018-12-17T15:43:33.108Z,47.47
2018-12-17T15:46:00.329Z,41.13
2018-12-17T15:48:27.541Z,44.47
2018-12-17T15:50:54.775Z,44.03
2018-12-17T15:53:21.987Z,50.23
2018-12-17T15:55:49.275Z,45.97
2018-12-17T15:58:16.521Z,47.47
2018-12-17T16:00:43.724Z,47.77
2018-12-17T16:03:10.960Z,47.10
2018-12-17T16:05:38.213Z,48.00
2018-12-17T16:08:05.445Z,44.00
2018-12-17T16:10:32.653Z,48.67
2018-12-17T16:12:59.897Z,45.10
2018-12-17T16:15:27.215Z,48.33
2018-12-17T16:17:54.417Z,45.20
2018-12-17T16:20:21.635Z,46.63
2018-12-17T16:22:48.813Z,45.93
2018-12-17T16:25:16.140Z,43.03
2018-12-17T16:27:43.377Z,44.40
2018-12-17T16:30:11.190Z,49.00
2018-12-17T16:32:38.540Z,51.13
2018-12-17T16:35:05.985Z,48.40
2018-12-17T16:37:33.326Z,48.10
2018-12-17T16:40:00.546Z,50.73
2018-12-17T16:42:27.789Z,44.90
2018-12-17T16:44:54.995Z,46.20
2018-12-17T16:47:22.305Z,47.60
2018-12-17T16:49:49.576Z,49.73
2018-12-17T16:52:16.907Z,51.23
2018-12-17T16:54:44.089Z,49.23
2018-12-17T16:57:11.316Z,47.63
2018-12-17T16:59:38.521Z,46.17
2018-12-17T17:02:05.791Z,47.13
2018-12-17T17:04:33.117Z,49.73
2018-12-17T17:07:00.317Z,48.70
2018-12-17T17:09:27.563Z,48.67
2018-12-17T17:11:54.797Z,50.93
2018-12-17T17:14:21.992Z,47.90
2018-12-17T17:16:49.548Z,50.03
2018-12-17T17:19:16.769Z,53.27
2018-12-17T17:21:44.230Z,56.37
2018-12-17T17:24:11.557Z,49.37
2018-12-17T17:26:38.924Z,58.03
2018-12-17T17:29:06.161Z,53.20
2018-12-17T17:31:33.568Z,51.17
2018-12-17T17:34:00.877Z,48.73
2018-12-17T17:36:28.081Z,54.77
2018-12-17T17:38:57.650Z,52.70
2018-12-17T17:41:24.899Z,55.77
2018-12-17T17:43:52.129Z,52.17
2018-12-17T17:46:19.323Z,53.73
2018-12-17T17:48:46.657Z,50.43
2018-12-17T17:51:13.876Z,48.53
2018-12-17T17:53:41.089Z,54.60
2018-12-17T17:56:08.378Z,53.37
2018-12-17T17:58:35.688Z,53.00
2018-12-17T18:01:03.128Z,49.13
2018-12-17T18:03:30.361Z,57.17
2018-12-17T18:05:57.579Z,48.43
2018-12-17T18:08:24.788Z,47.60
2018-12-17T18:10:52.149Z,50.20
2018-12-17T18:13:19.360Z,52.67
2018-12-17T18:15:46.824Z,49.57
2018-12-17T18:18:14.977Z,57.77
2018-12-17T18:20:42.696Z,52.27
2018-12-17T18:23:09.881Z,53.10
2018-12-17T18:25:37.147Z,56.33
2018-12-17T18:28:04.381Z,51.37
2018-12-17T18:30:31.610Z,48.13
2018-12-17T18:32:58.940Z,54.70
2018-12-17T18:35:26.172Z,59.87
2018-12-17T18:37:53.368Z,59.17
2018-12-17T18:40:20.623Z,53.17
2018-12-17T18:42:47.850Z,53.57
2018-12-17T18:45:15.167Z,52.67
2018-12-17T18:47:42.490Z,54.00
2018-12-17T18:50:09.917Z,61.87
2018-12-17T18:52:37.137Z,52.50
2018-12-17T18:55:04.657Z,50.10
2018-12-17T18:57:31.880Z,49.97
2018-12-17T18:59:59.105Z,51.63
2018-12-17T19:02:32.861Z,47.17
2018-12-17T19:04:55.908Z,49.07
2018-12-17T19:07:23.240Z,48.40
2018-12-17T19:09:50.536Z,48.77
2018-12-17T19:12:17.739Z,48.17
2018-12-17T19:14:44.973Z,46.17
2018-12-17T19:17:12.241Z,46.43
2018-12-17T19:19:39.464Z,42.70
2018-12-17T19:22:06.708Z,41.37
2018-12-17T19:24:34.075Z,46.50
2018-12-17T19:27:01.390Z,43.57
2018-12-17T19:29:28.672Z,42.77
2018-12-17T19:31:55.936Z,44.30
2018-12-17T19:34:23.162Z,48.10
2018-12-17T19:36:50.381Z,45.23
2018-12-17T19:39:17.631Z,45.33
2018-12-17T19:41:44.885Z,42.13
2018-12-17T19:44:12.084Z,47.33
2018-12-17T19:46:39.458Z,46.47
2018-12-17T19:49:06.712Z,45.83
2018-12-17T19:51:33.921Z,49.13
2018-12-17T19:54:01.148Z,44.83
2018-12-17T19:56:28.346Z,42.93
2018-12-17T19:58:55.573Z,44.20
2018-12-17T20:01:22.939Z,46.77
2018-12-17T20:03:50.284Z,47.57
2018-12-17T20:06:17.600Z,46.57
2018-12-17T20:08:44.890Z,49.37
2018-12-17T20:11:12.201Z,47.27
2018-12-17T20:13:39.513Z,42.70
2018-12-17T20:16:06.750Z,45.73
2018-12-17T20:18:35.077Z,43.90
2018-12-17T20:21:02.392Z,42.73
2018-12-17T20:23:29.625Z,44.77
2018-12-17T20:25:56.889Z,43.10
2018-12-17T20:28:24.142Z,40.10
2018-12-17T20:30:51.546Z,39.73
2018-12-17T20:33:18.781Z,40.13
2018-12-17T20:35:45.992Z,40.13
2018-12-17T20:38:13.254Z,34.60
2018-12-17T20:40:40.570Z,37.60
2018-12-17T20:43:07.793Z,40.20
2018-12-17T20:45:35.136Z,38.60
2018-12-17T20:48:02.359Z,41.77
2018-12-17T20:50:29.589Z,44.17
2018-12-17T20:52:57.073Z,38.23
2018-12-17T20:55:30.348Z,38.13
2018-12-17T20:57:53.492Z,39.87
2018-12-17T21:00:20.734Z,38.17
2018-12-17T21:02:47.937Z,42.07
2018-12-17T21:05:15.130Z,36.60
2018-12-17T21:07:42.490Z,39.57
2018-12-17T21:10:09.879Z,38.73
2018-12-17T21:12:37.132Z,40.60
2018-12-17T21:15:05.246Z,41.10
2018-12-17T21:17:32.453Z,39.77
2018-12-17T21:19:59.680Z,42.40
2018-12-17T21:22:26.894Z,41.17
2018-12-17T21:24:54.318Z,39.97
2018-12-17T21:27:21.512Z,41.53
2018-12-17T21:29:48.773Z,39.00
2018-12-17T21:32:15.967Z,42.90
2018-12-17T21:34:43.281Z,41.50
2018-12-17T21:37:10.670Z,42.87
2018-12-17T21:39:38.017Z,44.60
2018-12-17T21:42:05.217Z,47.10
2018-12-17T21:44:32.463Z,49.97
2018-12-17T21:46:59.744Z,44.43
2018-12-17T21:49:27.148Z,43.93
2018-12-17T21:51:54.608Z,43.37
2018-12-17T21:54:21.798Z,43.63
2018-12-17T21:56:49.006Z,48.27
2018-12-17T21:59:16.276Z,44.20
2018-12-17T22:01:43.489Z,43.00
2018-12-17T22:04:10.722Z,42.97
2018-12-17T22:06:37.965Z,46.03
2018-12-17T22:09:06.837Z,42.70
2018-12-17T22:11:34.088Z,48.67
2018-12-17T22:14:01.340Z,38.60
2018-12-17T22:16:28.553Z,41.57
2018-12-17T22:18:55.889Z,45.63
2018-12-17T22:21:23.131Z,48.10
2018-12-17T22:23:50.356Z,42.57
2018-12-17T22:26:17.677Z,45.53
2018-12-17T22:28:44.958Z,44.17
2018-12-17T22:31:12.173Z,47.77
2018-12-17T22:33:39.598Z,45.83
2018-12-17T22:36:06.877Z,44.13
2018-12-17T22:38:34.068Z,48.60
2018-12-17T22:41:01.403Z,45.63
2018-12-17T22:43:28.650Z,44.80
2018-12-17T22:45:55.910Z,42.87
2018-12-17T22:48:23.275Z,40.37
2018-12-17T22:50:50.557Z,46.20
2018-12-17T22:53:17.764Z,44.67
2018-12-17T22:55:44.952Z,46.90
2018-12-17T22:58:12.249Z,45.37
2018-12-17T23:00:40.380Z,40.67
2018-12-17T23:03:08.065Z,39.37
2018-12-17T23:05:35.612Z,43.70
2018-12-17T23:08:02.957Z,44.27
2018-12-17T23:10:43.433Z,43.57
2018-12-17T23:13:22.148Z,43.93
2018-12-17T23:16:06.150Z,44.00
2018-12-17T23:18:35.042Z,42.97
2018-12-17T23:21:02.769Z,45.97
2018-12-17T23:23:30.141Z,48.17
2018-12-17T23:25:57.456Z,41.83
2018-12-17T23:28:24.665Z,43.70
2018-12-17T23:30:52.000Z,38.33
2018-12-17T23:33:19.201Z,40.50
2018-12-17T23:35:46.520Z,41.00
2018-12-17T23:38:13.856Z,42.77
2018-12-17T23:40:41.053Z,47.67
2018-12-17T23:43:08.291Z,42.77
2018-12-17T23:45:35.668Z,46.47
2018-12-17T23:48:03.112Z,46.67
2018-12-17T23:50:30.393Z,47.77
2018-12-17T23:52:57.777Z,51.60
2018-12-17T23:55:24.988Z,49.27
2018-12-17T23:57:52.184Z,44.37
